Project City, California
Current Conditions -  °F | °C
As of 3:53 AM on Sunday 21 Dec 2014 (Local Time) from KRDD Reporting Station
Overcast Overcast  
Wind Chill: 12°   Ceiling: 800
Heat Index: 12°   Visibility: 10mi
Dew Point: 11°   Wind: 7mph
Humidity: 96%   Direction: 210°SSW
Pressure: 30.23"   Gusts: NA
Location:  40.6814°N, 122.35°W
Report Text: KRDD 211153Z 21006KT 10SM OVC008 12/11 A3023 RMK AO2 RAB09E18 CIG 006V011 SLP234 P0001 60001 70041 T01170111 10117 20117 50001
Loading
Personal Weather Stations






























Interactive Weather Map New forecast layout! Learn more

10-Day Weather Forecast

Advertisements
Track Severe Weather on mobile